sensor_id;sensor_type;location;lat;lon;timestamp;P1;durP1;ratioP1;P2;durP2;ratioP2
82000;SDS011;71510;50.558;7.258;2023-07-28T00:00:56;24.80;;;14.60;;
82000;SDS011;71510;50.558;7.258;2023-07-28T00:03:23;22.27;;;13.30;;
82000;SDS011;71510;50.558;7.258;2023-07-28T00:05:50;25.02;;;12.00;;
82000;SDS011;71510;50.558;7.258;2023-07-28T00:08:18;25.80;;;13.13;;
82000;SDS011;71510;50.558;7.258;2023-07-28T00:10:45;13.93;;;8.98;;
82000;SDS011;71510;50.558;7.258;2023-07-28T00:13:12;13.22;;;8.35;;
82000;SDS011;71510;50.558;7.258;2023-07-28T00:15:40;17.07;;;9.45;;
82000;SDS011;71510;50.558;7.258;2023-07-28T00:18:07;12.43;;;8.50;;
82000;SDS011;71510;50.558;7.258;2023-07-28T00:20:34;15.15;;;10.28;;
82000;SDS011;71510;50.558;7.258;2023-07-28T00:23:01;14.58;;;7.60;;
82000;SDS011;71510;50.558;7.258;2023-07-28T00:25:29;9.95;;;5.87;;
82000;SDS011;71510;50.558;7.258;2023-07-28T00:27:56;14.73;;;6.12;;
82000;SDS011;71510;50.558;7.258;2023-07-28T00:30:23;12.20;;;6.55;;
82000;SDS011;71510;50.558;7.258;2023-07-28T00:32:52;6.75;;;4.90;;
82000;SDS011;71510;50.558;7.258;2023-07-28T00:35:19;11.20;;;5.80;;
82000;SDS011;71510;50.558;7.258;2023-07-28T00:37:46;8.23;;;5.28;;
82000;SDS011;71510;50.558;7.258;2023-07-28T00:40:13;6.00;;;4.58;;
82000;SDS011;71510;50.558;7.258;2023-07-28T00:42:41;11.20;;;4.95;;
82000;SDS011;71510;50.558;7.258;2023-07-28T00:45:08;7.90;;;4.92;;
82000;SDS011;71510;50.558;7.258;2023-07-28T00:47:35;12.30;;;5.03;;
82000;SDS011;71510;50.558;7.258;2023-07-28T00:50:03;10.28;;;5.35;;
82000;SDS011;71510;50.558;7.258;2023-07-28T00:52:31;14.50;;;6.28;;
82000;SDS011;71510;50.558;7.258;2023-07-28T00:54:58;12.95;;;6.55;;
82000;SDS011;71510;50.558;7.258;2023-07-28T00:57:26;12.70;;;6.97;;
82000;SDS011;71510;50.558;7.258;2023-07-28T00:59:53;16.27;;;8.55;;
82000;SDS011;71510;50.558;7.258;2023-07-28T01:02:20;16.35;;;9.03;;
82000;SDS011;71510;50.558;7.258;2023-07-28T01:04:48;15.58;;;9.65;;
82000;SDS011;71510;50.558;7.258;2023-07-28T01:07:17;12.58;;;10.03;;
82000;SDS011;71510;50.558;7.258;2023-07-28T01:09:52;22.30;;;11.45;;
82000;SDS011;71510;50.558;7.258;2023-07-28T01:12:19;22.50;;;12.15;;
82000;SDS011;71510;50.558;7.258;2023-07-28T01:14:46;26.00;;;13.55;;
82000;SDS011;71510;50.558;7.258;2023-07-28T01:17:14;23.47;;;12.50;;
82000;SDS011;71510;50.558;7.258;2023-07-28T01:19:41;19.90;;;14.07;;
82000;SDS011;71510;50.558;7.258;2023-07-28T01:27:23;26.30;;;15.50;;
82000;SDS011;71510;50.558;7.258;2023-07-28T01:29:51;24.50;;;16.40;;
82000;SDS011;71510;50.558;7.258;2023-07-28T01:32:18;25.80;;;16.40;;
82000;SDS011;71510;50.558;7.258;2023-07-28T01:34:46;25.30;;;17.98;;
82000;SDS011;71510;50.558;7.258;2023-07-28T01:37:13;27.05;;;18.48;;
82000;SDS011;71510;50.558;7.258;2023-07-28T01:39:40;29.15;;;16.10;;
82000;SDS011;71510;50.558;7.258;2023-07-28T01:42:08;22.32;;;15.10;;
82000;SDS011;71510;50.558;7.258;2023-07-28T01:44:35;24.95;;;14.50;;
82000;SDS011;71510;50.558;7.258;2023-07-28T01:47:02;19.77;;;11.70;;
82000;SDS011;71510;50.558;7.258;2023-07-28T01:49:30;17.55;;;10.70;;
82000;SDS011;71510;50.558;7.258;2023-07-28T01:51:57;18.73;;;11.33;;
82000;SDS011;71510;50.558;7.258;2023-07-28T01:54:24;16.37;;;9.80;;
82000;SDS011;71510;50.558;7.258;2023-07-28T01:56:51;20.20;;;9.88;;
82000;SDS011;71510;50.558;7.258;2023-07-28T01:59:19;17.57;;;9.05;;
82000;SDS011;71510;50.558;7.258;2023-07-28T02:01:47;25.20;;;10.08;;
82000;SDS011;71510;50.558;7.258;2023-07-28T02:04:15;15.10;;;8.65;;
82000;SDS011;71510;50.558;7.258;2023-07-28T02:06:42;11.57;;;7.55;;
82000;SDS011;71510;50.558;7.258;2023-07-28T02:09:10;15.25;;;7.22;;
82000;SDS011;71510;50.558;7.258;2023-07-28T02:11:37;11.03;;;6.37;;
82000;SDS011;71510;50.558;7.258;2023-07-28T02:14:04;12.73;;;7.17;;
82000;SDS011;71510;50.558;7.258;2023-07-28T02:16:32;10.60;;;6.62;;
82000;SDS011;71510;50.558;7.258;2023-07-28T02:18:59;14.83;;;6.03;;
82000;SDS011;71510;50.558;7.258;2023-07-28T02:21:26;9.40;;;5.75;;
82000;SDS011;71510;50.558;7.258;2023-07-28T02:23:54;11.20;;;5.78;;
82000;SDS011;71510;50.558;7.258;2023-07-28T02:26:21;15.35;;;6.65;;
82000;SDS011;71510;50.558;7.258;2023-07-28T02:28:49;12.95;;;5.50;;
82000;SDS011;71510;50.558;7.258;2023-07-28T02:31:16;10.53;;;5.30;;
82000;SDS011;71510;50.558;7.258;2023-07-28T02:33:43;18.50;;;6.03;;
82000;SDS011;71510;50.558;7.258;2023-07-28T02:36:10;11.70;;;5.60;;
82000;SDS011;71510;50.558;7.258;2023-07-28T02:38:38;10.45;;;5.53;;
82000;SDS011;71510;50.558;7.258;2023-07-28T02:41:05;13.85;;;5.87;;
82000;SDS011;71510;50.558;7.258;2023-07-28T02:43:33;14.20;;;6.62;;
82000;SDS011;71510;50.558;7.258;2023-07-28T02:46:01;6.75;;;5.45;;
82000;SDS011;71510;50.558;7.258;2023-07-28T02:48:28;12.13;;;6.03;;
82000;SDS011;71510;50.558;7.258;2023-07-28T02:50:55;11.85;;;6.58;;
82000;SDS011;71510;50.558;7.258;2023-07-28T02:53:22;9.00;;;5.97;;
82000;SDS011;71510;50.558;7.258;2023-07-28T02:55:50;9.78;;;6.55;;
82000;SDS011;71510;50.558;7.258;2023-07-28T02:58:17;9.88;;;6.40;;
82000;SDS011;71510;50.558;7.258;2023-07-28T03:00:44;18.67;;;6.90;;
82000;SDS011;71510;50.558;7.258;2023-07-28T03:03:12;17.67;;;7.33;;
82000;SDS011;71510;50.558;7.258;2023-07-28T03:05:40;10.75;;;6.90;;
82000;SDS011;71510;50.558;7.258;2023-07-28T03:08:07;12.90;;;8.15;;
82000;SDS011;71510;50.558;7.258;2023-07-28T03:10:34;20.55;;;8.40;;
82000;SDS011;71510;50.558;7.258;2023-07-28T03:13:02;18.07;;;7.50;;
82000;SDS011;71510;50.558;7.258;2023-07-28T03:15:29;22.67;;;9.45;;
82000;SDS011;71510;50.558;7.258;2023-07-28T03:17:56;11.28;;;7.78;;
82000;SDS011;71510;50.558;7.258;2023-07-28T03:20:24;19.10;;;8.70;;
82000;SDS011;71510;50.558;7.258;2023-07-28T03:22:51;16.52;;;8.33;;
82000;SDS011;71510;50.558;7.258;2023-07-28T03:25:19;19.45;;;9.20;;
82000;SDS011;71510;50.558;7.258;2023-07-28T03:27:46;20.05;;;9.68;;
82000;SDS011;71510;50.558;7.258;2023-07-28T03:30:14;23.95;;;10.72;;
82000;SDS011;71510;50.558;7.258;2023-07-28T03:32:41;18.60;;;9.30;;
82000;SDS011;71510;50.558;7.258;2023-07-28T03:35:08;15.75;;;8.88;;
82000;SDS011;71510;50.558;7.258;2023-07-28T03:37:36;19.87;;;10.23;;
82000;SDS011;71510;50.558;7.258;2023-07-28T03:40:03;18.10;;;9.45;;
82000;SDS011;71510;50.558;7.258;2023-07-28T03:42:31;12.90;;;9.03;;
82000;SDS011;71510;50.558;7.258;2023-07-28T03:44:58;16.95;;;9.50;;
82000;SDS011;71510;50.558;7.258;2023-07-28T03:47:25;17.50;;;9.18;;
82000;SDS011;71510;50.558;7.258;2023-07-28T03:49:53;17.10;;;10.23;;
82000;SDS011;71510;50.558;7.258;2023-07-28T03:52:20;21.97;;;10.75;;
82000;SDS011;71510;50.558;7.258;2023-07-28T03:54:47;18.77;;;10.65;;
82000;SDS011;71510;50.558;7.258;2023-07-28T03:57:15;12.98;;;8.10;;
82000;SDS011;71510;50.558;7.258;2023-07-28T03:59:42;13.90;;;8.60;;
82000;SDS011;71510;50.558;7.258;2023-07-28T04:02:09;11.53;;;5.95;;
82000;SDS011;71510;50.558;7.258;2023-07-28T04:04:36;13.68;;;7.87;;
82000;SDS011;71510;50.558;7.258;2023-07-28T04:07:04;14.90;;;8.13;;
82000;SDS011;71510;50.558;7.258;2023-07-28T04:09:31;14.35;;;7.60;;
82000;SDS011;71510;50.558;7.258;2023-07-28T04:11:59;9.73;;;6.35;;
82000;SDS011;71510;50.558;7.258;2023-07-28T04:14:26;11.85;;;5.10;;
82000;SDS011;71510;50.558;7.258;2023-07-28T04:16:53;14.23;;;6.05;;
82000;SDS011;71510;50.558;7.258;2023-07-28T04:19:21;17.20;;;5.53;;
82000;SDS011;71510;50.558;7.258;2023-07-28T04:21:48;7.83;;;4.83;;
82000;SDS011;71510;50.558;7.258;2023-07-28T04:24:15;9.48;;;4.70;;
82000;SDS011;71510;50.558;7.258;2023-07-28T04:26:43;12.35;;;5.17;;
82000;SDS011;71510;50.558;7.258;2023-07-28T04:29:12;11.78;;;5.75;;
82000;SDS011;71510;50.558;7.258;2023-07-28T04:31:39;9.68;;;4.05;;
82000;SDS011;71510;50.558;7.258;2023-07-28T04:34:06;14.13;;;4.60;;
82000;SDS011;71510;50.558;7.258;2023-07-28T04:36:34;6.65;;;3.47;;
82000;SDS011;71510;50.558;7.258;2023-07-28T04:39:01;11.90;;;4.15;;
82000;SDS011;71510;50.558;7.258;2023-07-28T04:41:28;14.07;;;4.58;;
82000;SDS011;71510;50.558;7.258;2023-07-28T04:43:56;10.48;;;3.77;;
82000;SDS011;71510;50.558;7.258;2023-07-28T04:46:23;6.85;;;3.30;;
82000;SDS011;71510;50.558;7.258;2023-07-28T04:48:51;5.97;;;3.80;;
82000;SDS011;71510;50.558;7.258;2023-07-28T04:51:18;12.35;;;4.10;;
82000;SDS011;71510;50.558;7.258;2023-07-28T04:53:45;11.33;;;3.65;;
82000;SDS011;71510;50.558;7.258;2023-07-28T04:56:13;5.55;;;3.72;;
82000;SDS011;71510;50.558;7.258;2023-07-28T04:58:40;9.15;;;5.47;;
82000;SDS011;71510;50.558;7.258;2023-07-28T05:01:07;11.33;;;5.12;;
82000;SDS011;71510;50.558;7.258;2023-07-28T05:03:35;10.80;;;5.47;;
82000;SDS011;71510;50.558;7.258;2023-07-28T05:06:03;8.33;;;5.60;;
82000;SDS011;71510;50.558;7.258;2023-07-28T05:08:31;14.83;;;8.40;;
82000;SDS011;71510;50.558;7.258;2023-07-28T05:10:58;13.03;;;6.92;;
82000;SDS011;71510;50.558;7.258;2023-07-28T05:13:26;13.98;;;6.70;;
82000;SDS011;71510;50.558;7.258;2023-07-28T05:15:53;10.03;;;8.73;;
82000;SDS011;71510;50.558;7.258;2023-07-28T05:18:20;13.53;;;9.93;;
82000;SDS011;71510;50.558;7.258;2023-07-28T05:20:47;18.55;;;10.30;;
82000;SDS011;71510;50.558;7.258;2023-07-28T05:23:15;21.75;;;11.30;;
82000;SDS011;71510;50.558;7.258;2023-07-28T05:25:42;22.35;;;12.00;;
82000;SDS011;71510;50.558;7.258;2023-07-28T05:28:09;16.82;;;11.57;;
82000;SDS011;71510;50.558;7.258;2023-07-28T05:30:37;20.30;;;9.43;;
82000;SDS011;71510;50.558;7.258;2023-07-28T05:33:04;12.18;;;7.70;;
82000;SDS011;71510;50.558;7.258;2023-07-28T05:35:31;11.55;;;8.30;;
82000;SDS011;71510;50.558;7.258;2023-07-28T05:37:58;14.18;;;7.25;;
82000;SDS011;71510;50.558;7.258;2023-07-28T05:40:26;11.30;;;6.62;;
82000;SDS011;71510;50.558;7.258;2023-07-28T05:42:53;9.70;;;7.22;;
82000;SDS011;71510;50.558;7.258;2023-07-28T05:45:21;14.83;;;5.22;;
82000;SDS011;71510;50.558;7.258;2023-07-28T05:47:48;6.12;;;5.03;;
82000;SDS011;71510;50.558;7.258;2023-07-28T05:50:15;7.60;;;4.08;;
82000;SDS011;71510;50.558;7.258;2023-07-28T05:52:43;13.28;;;3.70;;
82000;SDS011;71510;50.558;7.258;2023-07-28T05:55:10;9.58;;;4.03;;
82000;SDS011;71510;50.558;7.258;2023-07-28T05:57:38;10.63;;;3.83;;
82000;SDS011;71510;50.558;7.258;2023-07-28T06:00:06;8.23;;;3.85;;
82000;SDS011;71510;50.558;7.258;2023-07-28T06:02:35;7.78;;;3.40;;
82000;SDS011;71510;50.558;7.258;2023-07-28T06:05:03;5.92;;;3.98;;
82000;SDS011;71510;50.558;7.258;2023-07-28T06:07:30;12.35;;;3.00;;
82000;SDS011;71510;50.558;7.258;2023-07-28T06:09:58;9.30;;;3.90;;
82000;SDS011;71510;50.558;7.258;2023-07-28T06:12:25;6.45;;;3.55;;
82000;SDS011;71510;50.558;7.258;2023-07-28T06:14:52;8.03;;;2.72;;
82000;SDS011;71510;50.558;7.258;2023-07-28T06:17:20;15.98;;;3.67;;
82000;SDS011;71510;50.558;7.258;2023-07-28T06:19:47;6.10;;;1.95;;
82000;SDS011;71510;50.558;7.258;2023-07-28T06:22:14;7.10;;;2.58;;
82000;SDS011;71510;50.558;7.258;2023-07-28T06:24:42;6.90;;;2.17;;
82000;SDS011;71510;50.558;7.258;2023-07-28T06:27:09;9.03;;;1.72;;
82000;SDS011;71510;50.558;7.258;2023-07-28T06:29:37;9.15;;;1.77;;
82000;SDS011;71510;50.558;7.258;2023-07-28T06:32:04;8.93;;;1.65;;
82000;SDS011;71510;50.558;7.258;2023-07-28T06:34:32;7.42;;;1.62;;
82000;SDS011;71510;50.558;7.258;2023-07-28T06:36:59;7.58;;;1.45;;
82000;SDS011;71510;50.558;7.258;2023-07-28T06:39:26;8.08;;;1.47;;
82000;SDS011;71510;50.558;7.258;2023-07-28T06:41:54;5.60;;;1.40;;
82000;SDS011;71510;50.558;7.258;2023-07-28T06:44:22;7.75;;;1.77;;
82000;SDS011;71510;50.558;7.258;2023-07-28T06:46:49;2.98;;;1.05;;
82000;SDS011;71510;50.558;7.258;2023-07-28T06:49:17;4.50;;;1.35;;
82000;SDS011;71510;50.558;7.258;2023-07-28T06:51:44;4.80;;;1.70;;
82000;SDS011;71510;50.558;7.258;2023-07-28T06:54:11;1.87;;;1.07;;
82000;SDS011;71510;50.558;7.258;2023-07-28T06:56:39;4.35;;;1.77;;
82000;SDS011;71510;50.558;7.258;2023-07-28T06:59:06;3.30;;;1.12;;
82000;SDS011;71510;50.558;7.258;2023-07-28T07:01:34;5.12;;;1.30;;
82000;SDS011;71510;50.558;7.258;2023-07-28T07:04:01;18.50;;;2.20;;
82000;SDS011;71510;50.558;7.258;2023-07-28T07:06:28;7.97;;;2.00;;
82000;SDS011;71510;50.558;7.258;2023-07-28T07:08:56;7.15;;;1.80;;
82000;SDS011;71510;50.558;7.258;2023-07-28T07:11:23;8.20;;;2.12;;
82000;SDS011;71510;50.558;7.258;2023-07-28T07:13:51;6.37;;;2.05;;
82000;SDS011;71510;50.558;7.258;2023-07-28T07:16:18;6.75;;;2.42;;
82000;SDS011;71510;50.558;7.258;2023-07-28T07:18:45;9.85;;;3.40;;
82000;SDS011;71510;50.558;7.258;2023-07-28T07:21:12;6.58;;;3.42;;
82000;SDS011;71510;50.558;7.258;2023-07-28T07:23:40;9.28;;;2.62;;
82000;SDS011;71510;50.558;7.258;2023-07-28T07:26:08;7.10;;;3.25;;
82000;SDS011;71510;50.558;7.258;2023-07-28T07:28:36;12.45;;;2.67;;
82000;SDS011;71510;50.558;7.258;2023-07-28T07:31:03;7.90;;;2.75;;
82000;SDS011;71510;50.558;7.258;2023-07-28T07:33:30;5.80;;;2.98;;
82000;SDS011;71510;50.558;7.258;2023-07-28T07:35:58;9.90;;;2.70;;
82000;SDS011;71510;50.558;7.258;2023-07-28T07:38:25;12.03;;;2.95;;
82000;SDS011;71510;50.558;7.258;2023-07-28T07:40:52;2.37;;;1.87;;
82000;SDS011;71510;50.558;7.258;2023-07-28T07:43:19;5.40;;;2.47;;
82000;SDS011;71510;50.558;7.258;2023-07-28T07:45:47;3.58;;;1.77;;
82000;SDS011;71510;50.558;7.258;2023-07-28T07:48:16;4.40;;;1.80;;
82000;SDS011;71510;50.558;7.258;2023-07-28T07:50:43;7.62;;;1.67;;
82000;SDS011;71510;50.558;7.258;2023-07-28T07:53:11;5.30;;;1.42;;
82000;SDS011;71510;50.558;7.258;2023-07-28T07:55:38;4.83;;;1.27;;
82000;SDS011;71510;50.558;7.258;2023-07-28T07:58:05;2.45;;;0.78;;
82000;SDS011;71510;50.558;7.258;2023-07-28T08:00:33;1.90;;;0.60;;
82000;SDS011;71510;50.558;7.258;2023-07-28T08:03:00;3.58;;;1.15;;
82000;SDS011;71510;50.558;7.258;2023-07-28T08:05:27;2.75;;;0.93;;
82000;SDS011;71510;50.558;7.258;2023-07-28T08:07:55;4.53;;;1.10;;
82000;SDS011;71510;50.558;7.258;2023-07-28T08:10:22;2.22;;;0.95;;
82000;SDS011;71510;50.558;7.258;2023-07-28T08:12:50;5.97;;;0.93;;
82000;SDS011;71510;50.558;7.258;2023-07-28T08:15:18;4.62;;;0.90;;
82000;SDS011;71510;50.558;7.258;2023-07-28T08:17:45;1.17;;;0.70;;
82000;SDS011;71510;50.558;7.258;2023-07-28T08:20:12;4.90;;;0.90;;
82000;SDS011;71510;50.558;7.258;2023-07-28T08:22:40;0.85;;;0.75;;
82000;SDS011;71510;50.558;7.258;2023-07-28T08:25:07;2.00;;;0.75;;
82000;SDS011;71510;50.558;7.258;2023-07-28T08:27:35;2.42;;;0.62;;
82000;SDS011;71510;50.558;7.258;2023-07-28T08:30:02;2.25;;;0.72;;
82000;SDS011;71510;50.558;7.258;2023-07-28T08:32:31;2.60;;;0.55;;
82000;SDS011;71510;50.558;7.258;2023-07-28T08:35:00;3.95;;;0.80;;
82000;SDS011;71510;50.558;7.258;2023-07-28T08:37:27;3.67;;;0.80;;
82000;SDS011;71510;50.558;7.258;2023-07-28T08:39:54;3.90;;;0.68;;
82000;SDS011;71510;50.558;7.258;2023-07-28T08:42:22;1.85;;;0.85;;
82000;SDS011;71510;50.558;7.258;2023-07-28T08:44:49;2.50;;;0.57;;
82000;SDS011;71510;50.558;7.258;2023-07-28T08:47:18;0.65;;;0.50;;
82000;SDS011;71510;50.558;7.258;2023-07-28T08:49:45;7.37;;;1.02;;
82000;SDS011;71510;50.558;7.258;2023-07-28T08:52:16;1.27;;;0.47;;
82000;SDS011;71510;50.558;7.258;2023-07-28T08:54:44;3.15;;;0.47;;
82000;SDS011;71510;50.558;7.258;2023-07-28T08:57:12;0.70;;;0.53;;
82000;SDS011;71510;50.558;7.258;2023-07-28T08:59:40;1.12;;;0.60;;
82000;SDS011;71510;50.558;7.258;2023-07-28T09:02:09;4.83;;;0.57;;
82000;SDS011;71510;50.558;7.258;2023-07-28T09:04:36;0.50;;;0.50;;
82000;SDS011;71510;50.558;7.258;2023-07-28T09:07:04;0.40;;;0.40;;
82000;SDS011;71510;50.558;7.258;2023-07-28T09:09:32;3.58;;;0.78;;
82000;SDS011;71510;50.558;7.258;2023-07-28T09:12:00;3.08;;;0.50;;
82000;SDS011;71510;50.558;7.258;2023-07-28T09:14:27;0.53;;;0.30;;
82000;SDS011;71510;50.558;7.258;2023-07-28T09:16:55;2.17;;;0.42;;
82000;SDS011;71510;50.558;7.258;2023-07-28T09:19:22;0.95;;;0.40;;
82000;SDS011;71510;50.558;7.258;2023-07-28T09:21:59;3.08;;;0.72;;
82000;SDS011;71510;50.558;7.258;2023-07-28T09:24:34;1.87;;;0.40;;
82000;SDS011;71510;50.558;7.258;2023-07-28T09:26:58;0.60;;;0.50;;
82000;SDS011;71510;50.558;7.258;2023-07-28T09:29:26;2.37;;;1.60;;
82000;SDS011;71510;50.558;7.258;2023-07-28T09:32:02;0.37;;;0.30;;
82000;SDS011;71510;50.558;7.258;2023-07-28T09:34:25;0.82;;;0.33;;
82000;SDS011;71510;50.558;7.258;2023-07-28T09:36:53;2.90;;;0.42;;
82000;SDS011;71510;50.558;7.258;2023-07-28T09:39:21;1.77;;;0.30;;
82000;SDS011;71510;50.558;7.258;2023-07-28T09:41:48;1.42;;;0.30;;
82000;SDS011;71510;50.558;7.258;2023-07-28T09:44:16;0.20;;;0.20;;
82000;SDS011;71510;50.558;7.258;2023-07-28T09:49:15;3.80;;;0.25;;
82000;SDS011;71510;50.558;7.258;2023-07-28T09:51:44;2.02;;;0.42;;
82000;SDS011;71510;50.558;7.258;2023-07-28T09:54:16;0.40;;;0.37;;
82000;SDS011;71510;50.558;7.258;2023-07-28T09:56:42;0.57;;;0.30;;
82000;SDS011;71510;50.558;7.258;2023-07-28T09:59:11;0.62;;;0.40;;
82000;SDS011;71510;50.558;7.258;2023-07-28T10:01:39;1.70;;;0.80;;
82000;SDS011;71510;50.558;7.258;2023-07-28T10:04:07;1.30;;;0.40;;
82000;SDS011;71510;50.558;7.258;2023-07-28T10:06:34;0.10;;;0.10;;
82000;SDS011;71510;50.558;7.258;2023-07-28T10:09:04;1.17;;;0.30;;
82000;SDS011;71510;50.558;7.258;2023-07-28T10:11:32;3.02;;;0.30;;
82000;SDS011;71510;50.558;7.258;2023-07-28T10:14:00;2.42;;;0.28;;
82000;SDS011;71510;50.558;7.258;2023-07-28T10:16:30;0.88;;;0.20;;
82000;SDS011;71510;50.558;7.258;2023-07-28T10:18:58;0.82;;;0.30;;
82000;SDS011;71510;50.558;7.258;2023-07-28T10:21:27;1.50;;;0.35;;
82000;SDS011;71510;50.558;7.258;2023-07-28T10:23:57;2.43;;;0.40;;
82000;SDS011;71510;50.558;7.258;2023-07-28T10:26:46;0.30;;;0.30;;
82000;SDS011;71510;50.558;7.258;2023-07-28T10:28:53;4.92;;;0.70;;
82000;SDS011;71510;50.558;7.258;2023-07-28T10:31:21;0.60;;;0.20;;
82000;SDS011;71510;50.558;7.258;2023-07-28T10:33:49;1.60;;;0.42;;
82000;SDS011;71510;50.558;7.258;2023-07-28T10:39:25;1.77;;;0.25;;
82000;SDS011;71510;50.558;7.258;2023-07-28T10:41:26;0.85;;;0.30;;
82000;SDS011;71510;50.558;7.258;2023-07-28T10:43:53;1.70;;;0.23;;
82000;SDS011;71510;50.558;7.258;2023-07-28T10:46:21;0.20;;;0.20;;
82000;SDS011;71510;50.558;7.258;2023-07-28T10:48:49;0.23;;;0.20;;
82000;SDS011;71510;50.558;7.258;2023-07-28T10:51:24;1.37;;;0.40;;
82000;SDS011;71510;50.558;7.258;2023-07-28T10:53:54;0.60;;;0.30;;
82000;SDS011;71510;50.558;7.258;2023-07-28T10:56:20;2.55;;;0.30;;
82000;SDS011;71510;50.558;7.258;2023-07-28T10:59:00;3.75;;;0.55;;
82000;SDS011;71510;50.558;7.258;2023-07-28T11:01:38;1.52;;;0.30;;
82000;SDS011;71510;50.558;7.258;2023-07-28T11:04:10;1.27;;;0.30;;
82000;SDS011;71510;50.558;7.258;2023-07-28T11:06:35;1.35;;;0.40;;
82000;SDS011;71510;50.558;7.258;2023-07-28T11:09:04;6.08;;;0.42;;
82000;SDS011;71510;50.558;7.258;2023-07-28T11:11:32;0.40;;;0.30;;
82000;SDS011;71510;50.558;7.258;2023-07-28T11:14:07;4.55;;;0.50;;
82000;SDS011;71510;50.558;7.258;2023-07-28T11:16:32;0.33;;;0.30;;
82000;SDS011;71510;50.558;7.258;2023-07-28T11:19:01;3.02;;;0.40;;
82000;SDS011;71510;50.558;7.258;2023-07-28T11:21:29;3.58;;;0.42;;
82000;SDS011;71510;50.558;7.258;2023-07-28T11:23:57;2.40;;;0.42;;
82000;SDS011;71510;50.558;7.258;2023-07-28T11:26:24;1.75;;;0.35;;
82000;SDS011;71510;50.558;7.258;2023-07-28T11:28:51;1.82;;;0.40;;
82000;SDS011;71510;50.558;7.258;2023-07-28T11:31:25;2.52;;;0.50;;
82000;SDS011;71510;50.558;7.258;2023-07-28T11:33:49;4.10;;;0.40;;
82000;SDS011;71510;50.558;7.258;2023-07-28T11:36:23;1.95;;;0.50;;
82000;SDS011;71510;50.558;7.258;2023-07-28T11:38:51;0.40;;;0.30;;
82000;SDS011;71510;50.558;7.258;2023-07-28T11:41:19;0.50;;;0.30;;
82000;SDS011;71510;50.558;7.258;2023-07-28T11:43:48;3.83;;;0.37;;
82000;SDS011;71510;50.558;7.258;2023-07-28T11:48:53;5.60;;;0.75;;
82000;SDS011;71510;50.558;7.258;2023-07-28T11:51:20;2.30;;;0.50;;
82000;SDS011;71510;50.558;7.258;2023-07-28T11:53:48;4.55;;;1.70;;
82000;SDS011;71510;50.558;7.258;2023-07-28T11:56:15;7.50;;;0.60;;
82000;SDS011;71510;50.558;7.258;2023-07-28T11:58:42;10.78;;;1.15;;
82000;SDS011;71510;50.558;7.258;2023-07-28T12:01:10;2.17;;;0.50;;
82000;SDS011;71510;50.558;7.258;2023-07-28T12:03:37;7.55;;;0.82;;
82000;SDS011;71510;50.558;7.258;2023-07-28T12:06:05;1.50;;;0.33;;
82000;SDS011;71510;50.558;7.258;2023-07-28T12:08:36;2.98;;;0.30;;
82000;SDS011;71510;50.558;7.258;2023-07-28T12:11:04;2.55;;;0.40;;
82000;SDS011;71510;50.558;7.258;2023-07-28T12:13:31;0.57;;;0.30;;
82000;SDS011;71510;50.558;7.258;2023-07-28T12:15:59;1.95;;;0.40;;
82000;SDS011;71510;50.558;7.258;2023-07-28T12:18:29;0.40;;;0.40;;
82000;SDS011;71510;50.558;7.258;2023-07-28T12:20:55;2.65;;;0.50;;
82000;SDS011;71510;50.558;7.258;2023-07-28T12:23:22;1.90;;;0.40;;
82000;SDS011;71510;50.558;7.258;2023-07-28T12:25:50;0.62;;;0.30;;
82000;SDS011;71510;50.558;7.258;2023-07-28T12:28:17;0.30;;;0.30;;
82000;SDS011;71510;50.558;7.258;2023-07-28T12:30:44;1.55;;;0.40;;
82000;SDS011;71510;50.558;7.258;2023-07-28T12:33:12;1.42;;;0.50;;
82000;SDS011;71510;50.558;7.258;2023-07-28T12:35:39;1.30;;;0.30;;
82000;SDS011;71510;50.558;7.258;2023-07-28T12:38:06;1.20;;;0.30;;
82000;SDS011;71510;50.558;7.258;2023-07-28T12:40:34;1.95;;;0.40;;
82000;SDS011;71510;50.558;7.258;2023-07-28T12:43:02;0.65;;;0.33;;
82000;SDS011;71510;50.558;7.258;2023-07-28T12:45:31;2.37;;;0.40;;
82000;SDS011;71510;50.558;7.258;2023-07-28T12:47:58;2.35;;;0.40;;
82000;SDS011;71510;50.558;7.258;2023-07-28T12:50:25;0.40;;;0.40;;
82000;SDS011;71510;50.558;7.258;2023-07-28T12:52:53;0.47;;;0.40;;
82000;SDS011;71510;50.558;7.258;2023-07-28T12:55:20;0.55;;;0.40;;
82000;SDS011;71510;50.558;7.258;2023-07-28T12:57:47;0.40;;;0.40;;
82000;SDS011;71510;50.558;7.258;2023-07-28T13:00:14;1.20;;;0.70;;
82000;SDS011;71510;50.558;7.258;2023-07-28T13:02:43;0.80;;;0.80;;
82000;SDS011;71510;50.558;7.258;2023-07-28T13:05:11;2.30;;;0.60;;
82000;SDS011;71510;50.558;7.258;2023-07-28T13:07:38;1.40;;;0.60;;
82000;SDS011;71510;50.558;7.258;2023-07-28T13:10:07;2.27;;;0.50;;
82000;SDS011;71510;50.558;7.258;2023-07-28T13:12:38;0.75;;;0.60;;
82000;SDS011;71510;50.558;7.258;2023-07-28T13:15:06;1.70;;;0.60;;
82000;SDS011;71510;50.558;7.258;2023-07-28T13:17:33;6.90;;;0.82;;
82000;SDS011;71510;50.558;7.258;2023-07-28T13:20:00;1.90;;;1.10;;
82000;SDS011;71510;50.558;7.258;2023-07-28T13:22:28;1.47;;;0.80;;
82000;SDS011;71510;50.558;7.258;2023-07-28T13:24:55;1.10;;;0.68;;
82000;SDS011;71510;50.558;7.258;2023-07-28T13:27:22;2.45;;;0.90;;
82000;SDS011;71510;50.558;7.258;2023-07-28T13:29:50;0.50;;;0.50;;
82000;SDS011;71510;50.558;7.258;2023-07-28T13:32:18;4.17;;;2.70;;
82000;SDS011;71510;50.558;7.258;2023-07-28T13:34:45;3.52;;;1.77;;
82000;SDS011;71510;50.558;7.258;2023-07-28T13:37:13;2.47;;;0.70;;
82000;SDS011;71510;50.558;7.258;2023-07-28T13:39:41;1.15;;;0.70;;
82000;SDS011;71510;50.558;7.258;2023-07-28T13:42:09;2.00;;;0.90;;
82000;SDS011;71510;50.558;7.258;2023-07-28T13:44:38;1.40;;;0.62;;
82000;SDS011;71510;50.558;7.258;2023-07-28T13:47:05;1.17;;;0.90;;
82000;SDS011;71510;50.558;7.258;2023-07-28T13:49:33;1.00;;;0.90;;
82000;SDS011;71510;50.558;7.258;2023-07-28T13:52:02;4.37;;;1.75;;
82000;SDS011;71510;50.558;7.258;2023-07-28T13:54:30;2.92;;;1.07;;
82000;SDS011;71510;50.558;7.258;2023-07-28T13:56:57;0.85;;;0.75;;
82000;SDS011;71510;50.558;7.258;2023-07-28T13:59:24;1.12;;;0.60;;
82000;SDS011;71510;50.558;7.258;2023-07-28T14:01:51;2.92;;;0.90;;
82000;SDS011;71510;50.558;7.258;2023-07-28T14:04:19;2.35;;;1.17;;
82000;SDS011;71510;50.558;7.258;2023-07-28T14:06:46;3.08;;;1.15;;
82000;SDS011;71510;50.558;7.258;2023-07-28T14:09:13;0.93;;;0.93;;
82000;SDS011;71510;50.558;7.258;2023-07-28T14:11:41;3.27;;;1.35;;
82000;SDS011;71510;50.558;7.258;2023-07-28T14:14:08;2.87;;;2.25;;
82000;SDS011;71510;50.558;7.258;2023-07-28T14:16:35;2.55;;;1.90;;
82000;SDS011;71510;50.558;7.258;2023-07-28T14:19:03;3.17;;;1.60;;
82000;SDS011;71510;50.558;7.258;2023-07-28T14:21:30;4.42;;;1.47;;
82000;SDS011;71510;50.558;7.258;2023-07-28T14:23:57;2.37;;;1.55;;
82000;SDS011;71510;50.558;7.258;2023-07-28T14:26:25;1.40;;;1.30;;
82000;SDS011;71510;50.558;7.258;2023-07-28T14:28:52;2.30;;;1.17;;
82000;SDS011;71510;50.558;7.258;2023-07-28T14:31:20;2.92;;;1.47;;
82000;SDS011;71510;50.558;7.258;2023-07-28T14:33:47;3.85;;;1.22;;
82000;SDS011;71510;50.558;7.258;2023-07-28T14:36:14;1.15;;;1.00;;
82000;SDS011;71510;50.558;7.258;2023-07-28T14:38:42;2.05;;;1.10;;
82000;SDS011;71510;50.558;7.258;2023-07-28T14:41:10;2.72;;;1.25;;
82000;SDS011;71510;50.558;7.258;2023-07-28T14:43:37;1.47;;;1.37;;
82000;SDS011;71510;50.558;7.258;2023-07-28T14:46:04;2.05;;;1.22;;
82000;SDS011;71510;50.558;7.258;2023-07-28T14:48:32;1.37;;;1.10;;
82000;SDS011;71510;50.558;7.258;2023-07-28T14:51:00;1.67;;;1.32;;
82000;SDS011;71510;50.558;7.258;2023-07-28T14:53:34;2.30;;;1.27;;
82000;SDS011;71510;50.558;7.258;2023-07-28T14:56:02;3.30;;;2.17;;